createdAt,value
2023-01-01T00:01:29.917Z,15.55
2023-01-01T00:03:58.013Z,15.32
2023-01-01T00:06:25.312Z,15.68
2023-01-01T00:09:12.416Z,15.52
2023-01-01T00:11:39.585Z,15.02
2023-01-01T00:14:12.057Z,15.55
2023-01-01T00:16:40.232Z,16.60
2023-01-01T00:19:07.479Z,16.80
2023-01-01T00:21:34.795Z,17.17
2023-01-01T00:24:01.973Z,17.00
2023-01-01T00:26:34.611Z,18.13
2023-01-01T00:29:02.849Z,18.35
2023-01-01T00:31:30.180Z,17.85
2023-01-01T00:33:57.860Z,17.70
2023-01-01T00:36:26.202Z,17.48
2023-01-01T00:38:53.483Z,16.38
2023-01-01T00:41:20.630Z,16.33
2023-01-01T00:43:47.916Z,15.43
2023-01-01T00:46:15.300Z,15.73
2023-01-01T00:48:42.440Z,15.95
2023-01-01T00:51:10.027Z,15.45
2023-01-01T00:53:37.277Z,15.32
2023-01-01T00:56:05.037Z,15.38
2023-01-01T00:58:32.341Z,15.23
2023-01-01T01:00:59.539Z,14.75
2023-01-01T01:03:30.393Z,14.95
2023-01-01T01:06:03.320Z,14.48
2023-01-01T01:08:31.622Z,14.25
2023-01-01T01:11:05.721Z,14.20
2023-01-01T01:13:32.938Z,13.77
2023-01-01T01:16:00.057Z,13.52
2023-01-01T01:18:27.291Z,14.38
2023-01-01T01:20:54.995Z,13.65
2023-01-01T01:23:22.289Z,13.93
2023-01-01T01:25:49.443Z,14.20
2023-01-01T01:28:16.581Z,14.18
2023-01-01T01:30:43.715Z,14.02
2023-01-01T01:33:11.003Z,14.35
2023-01-01T01:35:38.108Z,14.90
2023-01-01T01:38:05.217Z,14.38
2023-01-01T01:40:33.782Z,14.88
2023-01-01T01:43:00.873Z,15.60
2023-01-01T01:45:33.166Z,14.23
2023-01-01T01:48:00.906Z,13.40
2023-01-01T01:50:30.947Z,13.85
2023-01-01T01:53:13.297Z,13.55
2023-01-01T01:55:41.913Z,13.57
2023-01-01T01:58:10.281Z,12.77
2023-01-01T02:00:37.513Z,12.48
2023-01-01T02:03:07.084Z,13.55
2023-01-01T02:05:35.251Z,12.15
2023-01-01T02:08:03.771Z,11.80
2023-01-01T02:10:30.883Z,12.00
2023-01-01T02:12:58.038Z,12.80
2023-01-01T02:15:29.043Z,12.85
2023-01-01T02:17:59.263Z,13.27
2023-01-01T02:20:42.166Z,13.65
2023-01-01T02:23:21.609Z,12.68
2023-01-01T02:26:00.669Z,12.18
2023-01-01T02:28:30.574Z,12.10
2023-01-01T02:30:58.536Z,11.10
2023-01-01T02:33:26.942Z,11.98
2023-01-01T02:36:00.895Z,11.65
2023-01-01T02:38:46.801Z,10.82
2023-01-01T02:41:16.692Z,11.43
2023-01-01T02:43:43.924Z,11.07
2023-01-01T02:46:12.661Z,11.82
2023-01-01T02:48:40.115Z,11.27
2023-01-01T02:51:12.267Z,11.50
2023-01-01T02:53:42.293Z,10.68
2023-01-01T02:56:15.180Z,12.18
2023-01-01T02:59:07.173Z,11.32
2023-01-01T03:01:50.799Z,10.65
2023-01-01T03:04:44.333Z,10.23
2023-01-01T03:07:14.635Z,10.35
2023-01-01T03:09:55.220Z,10.40
2023-01-01T03:12:22.390Z,10.95
2023-01-01T03:14:56.650Z,10.55
2023-01-01T03:17:37.076Z,10.68
2023-01-01T03:20:07.486Z,10.73
2023-01-01T03:25:12.971Z,10.05
2023-01-01T03:27:56.626Z,10.82
2023-01-01T03:30:24.473Z,10.25
2023-01-01T03:33:01.484Z,9.95
2023-01-01T03:35:35.946Z,10.52
2023-01-01T03:38:04.541Z,10.05
2023-01-01T03:40:32.592Z,10.40
2023-01-01T03:43:17.555Z,9.02
2023-01-01T03:45:45.593Z,9.90
2023-01-01T03:48:12.982Z,10.30
2023-01-01T03:50:46.175Z,10.73
2023-01-01T03:53:32.910Z,10.50
2023-01-01T03:56:07.497Z,10.10
2023-01-01T03:58:36.153Z,10.77
2023-01-01T04:01:09.343Z,10.63
2023-01-01T04:03:37.359Z,10.15
2023-01-01T04:06:04.790Z,9.43
2023-01-01T04:08:33.529Z,10.55
2023-01-01T04:11:21.525Z,10.98
2023-01-01T04:13:48.828Z,9.20
2023-01-01T04:16:15.989Z,8.50
2023-01-01T04:18:43.106Z,9.15
2023-01-01T04:21:10.248Z,9.55
2023-01-01T04:23:37.327Z,9.00
2023-01-01T04:26:04.420Z,9.00
2023-01-01T04:28:31.695Z,9.25
2023-01-01T04:31:02.723Z,9.30
2023-01-01T04:33:29.807Z,8.48
2023-01-01T04:35:56.947Z,9.30
2023-01-01T04:38:24.045Z,9.65
2023-01-01T04:41:01.468Z,8.38
2023-01-01T04:43:28.749Z,9.00
2023-01-01T04:45:56.805Z,8.60
2023-01-01T04:48:24.087Z,7.85
2023-01-01T04:50:54.890Z,8.30
2023-01-01T04:53:22.029Z,7.65
2023-01-01T04:55:49.296Z,7.80
2023-01-01T04:58:16.394Z,7.63
2023-01-01T05:00:43.624Z,7.63
2023-01-01T05:03:10.860Z,7.75
2023-01-01T05:05:37.984Z,7.00
2023-01-01T05:08:05.061Z,7.97
2023-01-01T05:10:32.219Z,6.97
2023-01-01T05:12:59.328Z,7.10
2023-01-01T05:15:26.457Z,7.43
2023-01-01T05:17:55.042Z,7.63
2023-01-01T05:20:22.126Z,7.78
2023-01-01T05:22:49.256Z,7.20
2023-01-01T05:25:16.431Z,7.70
2023-01-01T05:27:43.486Z,7.13
2023-01-01T05:30:10.770Z,7.78
2023-01-01T05:32:38.337Z,8.18
2023-01-01T05:35:05.641Z,7.72
2023-01-01T05:37:32.735Z,7.90
2023-01-01T05:39:59.882Z,8.10
2023-01-01T05:42:26.971Z,8.63
2023-01-01T05:44:54.069Z,7.90
2023-01-01T05:47:22.407Z,8.85
2023-01-01T05:49:49.733Z,8.27
2023-01-01T05:52:21.520Z,8.35
2023-01-01T05:54:51.728Z,8.27
2023-01-01T05:57:18.823Z,7.75
2023-01-01T05:59:45.905Z,7.65
2023-01-01T06:02:13.148Z,7.32
2023-01-01T06:04:40.364Z,7.72
2023-01-01T06:07:07.483Z,8.70
2023-01-01T06:09:34.663Z,7.70
2023-01-01T06:12:01.749Z,7.88
2023-01-01T06:14:28.843Z,7.72
2023-01-01T06:16:55.999Z,7.47
2023-01-01T06:19:23.242Z,8.18
2023-01-01T06:21:50.371Z,7.60
2023-01-01T06:24:17.495Z,7.60
2023-01-01T06:26:44.583Z,7.25
2023-01-01T06:29:11.651Z,7.10
2023-01-01T06:31:40.946Z,7.20
2023-01-01T06:34:08.349Z,7.45
2023-01-01T06:36:35.563Z,6.95
2023-01-01T06:39:03.676Z,8.05
2023-01-01T06:41:30.934Z,6.50
2023-01-01T06:43:58.627Z,7.13
2023-01-01T06:46:30.206Z,6.95
2023-01-01T06:48:58.864Z,6.40
2023-01-01T06:51:27.642Z,7.30
2023-01-01T06:53:55.314Z,7.10
2023-01-01T06:56:22.638Z,7.30
2023-01-01T06:58:49.813Z,7.20
2023-01-01T07:01:18.683Z,7.65
2023-01-01T07:03:50.576Z,7.15
2023-01-01T07:06:17.694Z,6.80
2023-01-01T07:08:44.974Z,6.80
2023-01-01T07:11:12.063Z,6.22
2023-01-01T07:13:39.166Z,6.82
2023-01-01T07:16:12.424Z,7.05
2023-01-01T07:18:40.372Z,7.28
2023-01-01T07:21:08.013Z,6.70
2023-01-01T07:23:36.023Z,6.60
2023-01-01T07:26:03.137Z,7.03
2023-01-01T07:28:30.307Z,7.07
2023-01-01T07:30:57.469Z,7.90
2023-01-01T07:33:24.926Z,6.43
2023-01-01T07:35:52.157Z,6.72
2023-01-01T07:38:19.321Z,6.97
2023-01-01T07:40:46.480Z,6.72
2023-01-01T07:43:14.283Z,6.88
2023-01-01T07:45:41.669Z,6.45
2023-01-01T07:48:10.449Z,6.70
2023-01-01T07:50:38.356Z,6.75
2023-01-01T07:53:05.584Z,6.72
2023-01-01T07:55:34.212Z,6.28
2023-01-01T07:58:01.918Z,5.78
2023-01-01T08:00:29.628Z,5.97
2023-01-01T08:02:56.893Z,5.95
2023-01-01T08:05:26.793Z,5.78
2023-01-01T08:07:54.379Z,6.10
2023-01-01T08:10:21.547Z,5.85
2023-01-01T08:12:48.781Z,6.30
2023-01-01T08:15:16.470Z,6.40
2023-01-01T08:17:46.900Z,6.47
2023-01-01T08:20:14.546Z,6.63
2023-01-01T08:22:41.642Z,6.82
2023-01-01T08:25:08.956Z,6.47
2023-01-01T08:27:36.284Z,6.82
2023-01-01T08:30:03.424Z,6.90
2023-01-01T08:32:30.484Z,6.85
2023-01-01T08:34:57.648Z,6.90
2023-01-01T08:37:25.007Z,6.60
2023-01-01T08:39:53.049Z,6.85
2023-01-01T08:42:20.236Z,6.10
2023-01-01T08:44:47.407Z,6.40
2023-01-01T08:47:21.873Z,6.35
2023-01-01T08:49:49.006Z,6.13
2023-01-01T08:52:16.522Z,6.82
2023-01-01T08:54:43.787Z,6.72
2023-01-01T08:57:11.283Z,6.72
2023-01-01T08:59:38.406Z,6.85
2023-01-01T09:02:06.423Z,6.43
2023-01-01T09:04:33.691Z,6.32
2023-01-01T09:07:00.799Z,6.35
2023-01-01T09:09:31.556Z,5.63
2023-01-01T09:12:04.028Z,6.90
2023-01-01T09:14:31.509Z,6.13
2023-01-01T09:16:58.993Z,6.13
2023-01-01T09:19:26.360Z,6.63
2023-01-01T09:21:54.139Z,5.97
2023-01-01T09:24:21.284Z,5.97
2023-01-01T09:26:48.412Z,6.45
2023-01-01T09:29:20.754Z,6.63
2023-01-01T09:31:48.861Z,6.40
2023-01-01T09:34:16.683Z,5.90
2023-01-01T09:36:43.952Z,6.65
2023-01-01T09:39:18.335Z,5.93
2023-01-01T09:41:51.538Z,6.00
2023-01-01T09:44:18.606Z,6.07
2023-01-01T09:46:45.730Z,6.25
2023-01-01T09:49:33.123Z,5.90
2023-01-01T09:52:01.752Z,6.10
2023-01-01T09:54:30.332Z,6.22
2023-01-01T09:56:59.819Z,5.70
2023-01-01T09:59:27.494Z,6.22
2023-01-01T10:02:01.200Z,6.88
2023-01-01T10:04:31.363Z,6.78
2023-01-01T10:07:04.651Z,5.90
2023-01-01T10:09:40.815Z,6.40
2023-01-01T10:12:34.264Z,6.38
2023-01-01T10:15:19.446Z,6.10
2023-01-01T10:17:49.099Z,6.35
2023-01-01T10:20:22.092Z,6.75
2023-01-01T10:22:52.022Z,6.60
2023-01-01T10:25:21.677Z,6.63
2023-01-01T10:27:58.984Z,6.30
2023-01-01T10:30:27.893Z,6.15
2023-01-01T10:32:55.911Z,6.60
2023-01-01T10:35:31.084Z,6.18
2023-01-01T10:38:01.765Z,6.43
2023-01-01T10:40:29.459Z,6.50
2023-01-01T10:42:57.922Z,5.63
2023-01-01T10:45:31.216Z,6.07
2023-01-01T10:48:14.332Z,5.93
2023-01-01T10:50:49.816Z,6.00
2023-01-01T10:53:25.981Z,5.88
2023-01-01T10:55:59.815Z,6.75
2023-01-01T10:58:28.260Z,6.18
2023-01-01T11:00:59.767Z,6.07
2023-01-01T11:03:26.958Z,6.40
2023-01-01T11:06:01.004Z,6.28
2023-01-01T11:08:28.924Z,6.10
2023-01-01T11:10:58.328Z,6.07
2023-01-01T11:13:25.770Z,5.53
2023-01-01T11:15:52.913Z,6.07
2023-01-01T11:18:24.117Z,6.40
2023-01-01T11:23:32.047Z,6.93
2023-01-01T11:25:59.213Z,6.40
2023-01-01T11:28:26.675Z,6.47
2023-01-01T11:31:01.878Z,5.57
2023-01-01T11:33:30.909Z,6.43
2023-01-01T11:35:58.104Z,6.85
2023-01-01T11:38:29.882Z,6.55
2023-01-01T11:41:02.203Z,7.10
2023-01-01T11:43:29.566Z,5.18
2023-01-01T11:45:58.320Z,6.47
2023-01-01T11:48:30.496Z,6.35
2023-01-01T11:51:08.459Z,6.65
2023-01-01T11:53:41.672Z,6.95
2023-01-01T11:56:13.562Z,7.05
2023-01-01T11:58:55.953Z,6.90
2023-01-01T12:01:28.789Z,5.28
2023-01-01T12:04:05.895Z,6.75
2023-01-01T12:06:37.137Z,6.05
2023-01-01T12:11:34.653Z,6.35
2023-01-01T12:14:22.051Z,6.35
2023-01-01T12:16:53.929Z,6.70
2023-01-01T12:19:24.032Z,6.10
2023-01-01T12:21:52.994Z,6.03
2023-01-01T12:24:20.502Z,6.40
2023-01-01T12:26:47.574Z,6.53
2023-01-01T12:29:28.298Z,6.13
2023-01-01T12:32:14.130Z,6.43
2023-01-01T12:34:44.396Z,6.32
2023-01-01T12:37:20.798Z,6.93
2023-01-01T12:39:50.982Z,6.00
2023-01-01T12:42:26.113Z,6.45
2023-01-01T12:45:05.230Z,6.30
2023-01-01T12:47:50.482Z,6.20
2023-01-01T12:50:55.234Z,6.68
2023-01-01T12:53:31.710Z,5.97
2023-01-01T12:56:20.848Z,6.03
2023-01-01T12:58:56.884Z,6.25
2023-01-01T13:01:32.869Z,5.78
2023-01-01T13:04:03.609Z,6.22
2023-01-01T13:06:47.943Z,7.03
2023-01-01T13:09:25.787Z,7.18
2023-01-01T13:12:07.015Z,5.95
2023-01-01T13:14:47.643Z,6.63
2023-01-01T13:17:19.728Z,6.00
2023-01-01T13:19:47.166Z,5.55
2023-01-01T13:22:26.678Z,5.78
2023-01-01T13:25:11.872Z,5.75
2023-01-01T13:27:57.203Z,6.40
2023-01-01T13:30:36.478Z,6.30
2023-01-01T13:33:17.596Z,5.97
2023-01-01T13:35:48.774Z,7.32
2023-01-01T13:38:34.744Z,7.22
2023-01-01T13:41:01.824Z,6.53
2023-01-01T13:43:29.426Z,6.85
2023-01-01T13:46:14.513Z,6.28
2023-01-01T13:48:48.691Z,6.63
2023-01-01T13:52:02.791Z,6.15
2023-01-01T13:54:27.059Z,6.57
2023-01-01T13:56:56.566Z,6.45
2023-01-01T13:59:23.659Z,5.72
2023-01-01T14:02:12.232Z,5.90
2023-01-01T14:04:42.567Z,6.35
2023-01-01T14:07:48.910Z,6.00
2023-01-01T14:10:29.254Z,5.13
2023-01-01T14:13:02.448Z,5.93
2023-01-01T14:15:31.822Z,6.05
2023-01-01T14:18:00.561Z,6.20
2023-01-01T14:20:44.452Z,6.00
2023-01-01T14:23:13.776Z,5.68
2023-01-01T14:25:42.533Z,6.45
2023-01-01T14:28:30.033Z,5.90
2023-01-01T14:30:59.140Z,6.15
2023-01-01T14:33:28.183Z,6.18
2023-01-01T14:35:56.108Z,6.20
2023-01-01T14:38:27.654Z,5.70
2023-01-01T14:41:07.093Z,5.95
2023-01-01T14:43:36.148Z,5.72
2023-01-01T14:46:09.074Z,5.43
2023-01-01T14:48:38.372Z,5.82
2023-01-01T14:51:05.513Z,6.13
2023-01-01T14:53:34.122Z,6.55
2023-01-01T14:56:03.039Z,6.28
2023-01-01T14:58:30.427Z,7.13
2023-01-01T15:01:17.987Z,6.72
2023-01-01T15:03:55.640Z,6.43
2023-01-01T15:06:23.906Z,6.35
2023-01-01T15:08:51.303Z,6.63
2023-01-01T15:11:22.281Z,6.30
2023-01-01T15:13:56.286Z,6.38
2023-01-01T15:16:23.772Z,6.20
2023-01-01T15:18:52.717Z,6.18
2023-01-01T15:21:34.223Z,5.65
2023-01-01T15:24:08.342Z,6.47
2023-01-01T15:26:41.643Z,6.32
2023-01-01T15:29:10.589Z,6.47
2023-01-01T15:31:54.557Z,5.97
2023-01-01T15:34:27.600Z,5.78
2023-01-01T15:36:55.837Z,7.15
2023-01-01T15:39:23.357Z,5.25
2023-01-01T15:41:51.580Z,5.97
2023-01-01T15:44:26.605Z,5.43
2023-01-01T15:46:53.998Z,6.10
2023-01-01T15:49:28.324Z,6.65
2023-01-01T15:51:57.434Z,5.90
2023-01-01T15:54:24.991Z,5.95
2023-01-01T15:56:52.428Z,6.25
2023-01-01T15:59:24.094Z,6.95
2023-01-01T16:01:51.707Z,5.72
2023-01-01T16:04:28.658Z,5.65
2023-01-01T16:06:57.570Z,5.72
2023-01-01T16:09:24.731Z,6.05
2023-01-01T16:11:52.802Z,6.57
2023-01-01T16:14:19.883Z,5.85
2023-01-01T16:16:51.211Z,5.97
2023-01-01T16:19:19.434Z,5.68
2023-01-01T16:21:46.613Z,5.70
2023-01-01T16:24:17.864Z,6.05
2023-01-01T16:29:12.020Z,5.30
2023-01-01T16:31:40.113Z,5.80
2023-01-01T16:34:07.599Z,5.88
2023-01-01T16:36:34.698Z,5.80
2023-01-01T16:39:01.888Z,5.60
2023-01-01T16:41:30.196Z,6.32
2023-01-01T16:43:57.875Z,5.60
2023-01-01T16:46:26.690Z,5.18
2023-01-01T16:48:53.951Z,5.60
2023-01-01T16:51:24.190Z,5.50
2023-01-01T16:53:51.355Z,5.25
2023-01-01T16:56:18.751Z,5.47
2023-01-01T16:58:51.565Z,5.85
2023-01-01T17:01:22.298Z,5.28
2023-01-01T17:03:49.748Z,5.65
2023-01-01T17:06:16.885Z,5.82
2023-01-01T17:08:44.054Z,5.57
2023-01-01T17:11:15.802Z,5.20
2023-01-01T17:13:43.415Z,4.70
2023-01-01T17:16:12.095Z,5.35
2023-01-01T17:19:13.256Z,5.15
2023-01-01T17:21:26.929Z,5.53
2023-01-01T17:23:54.040Z,5.70
2023-01-01T17:26:26.325Z,5.28
2023-01-01T17:29:00.325Z,5.28
2023-01-01T17:31:29.027Z,4.90
2023-01-01T17:33:56.671Z,5.22
2023-01-01T17:36:24.160Z,5.15
2023-01-01T17:38:51.277Z,5.03
2023-01-01T17:41:18.528Z,6.30
2023-01-01T17:43:47.019Z,5.40
2023-01-01T17:46:15.441Z,5.78
2023-01-01T17:48:43.221Z,5.10
2023-01-01T17:51:10.659Z,5.30
2023-01-01T17:53:39.416Z,5.35
2023-01-01T17:56:07.159Z,5.15
2023-01-01T17:58:35.726Z,5.05
2023-01-01T18:01:09.176Z,5.13
2023-01-01T18:03:36.410Z,5.57
2023-01-01T18:06:03.758Z,4.95
2023-01-01T18:08:33.006Z,4.90
2023-01-01T18:11:00.372Z,4.85
2023-01-01T18:13:27.518Z,5.43
2023-01-01T18:15:54.913Z,5.05
2023-01-01T18:18:22.029Z,5.25
2023-01-01T18:20:49.117Z,5.00
2023-01-01T18:23:16.253Z,4.78
2023-01-01T18:25:43.340Z,5.65
2023-01-01T18:28:10.627Z,5.43
2023-01-01T18:30:37.807Z,5.95
2023-01-01T18:33:04.880Z,5.70
2023-01-01T18:35:31.991Z,5.95
2023-01-01T18:37:59.153Z,6.35
2023-01-01T18:40:27.226Z,5.95
2023-01-01T18:43:05.341Z,6.25
2023-01-01T18:45:32.659Z,5.63
2023-01-01T18:48:01.756Z,4.70
2023-01-01T18:50:31.256Z,6.00
2023-01-01T18:53:01.183Z,5.30
2023-01-01T18:55:28.333Z,5.38
2023-01-01T18:57:58.513Z,5.38
2023-01-01T19:00:26.809Z,5.18
2023-01-01T19:03:01.511Z,5.50
2023-01-01T19:05:28.602Z,5.32
2023-01-01T19:08:07.826Z,5.63
2023-01-01T19:10:35.174Z,5.28
2023-01-01T19:13:10.593Z,5.25
2023-01-01T19:15:37.798Z,5.40
2023-01-01T19:18:12.743Z,5.35
2023-01-01T19:20:39.816Z,5.70
2023-01-01T19:23:11.965Z,5.78
2023-01-01T19:25:40.173Z,4.97
2023-01-01T19:28:16.312Z,5.55
2023-01-01T19:30:46.818Z,5.53
2023-01-01T19:33:14.246Z,5.35
2023-01-01T19:35:41.677Z,5.90
2023-01-01T19:38:08.817Z,5.78
2023-01-01T19:40:35.935Z,5.40
2023-01-01T19:43:03.786Z,5.40
2023-01-01T19:45:31.708Z,5.43
2023-01-01T19:47:58.817Z,5.50
2023-01-01T19:50:25.908Z,5.28
2023-01-01T19:52:53.073Z,5.82
2023-01-01T19:55:20.165Z,5.72
2023-01-01T19:57:47.323Z,4.93
2023-01-01T20:00:14.848Z,5.43
2023-01-01T20:02:47.038Z,5.53
2023-01-01T20:05:15.102Z,4.95
2023-01-01T20:07:42.231Z,5.78
2023-01-01T20:10:09.589Z,6.40
2023-01-01T20:12:36.803Z,5.82
2023-01-01T20:15:04.120Z,5.60
2023-01-01T20:17:31.267Z,5.35
2023-01-01T20:19:58.563Z,5.43
2023-01-01T20:22:25.788Z,5.40
2023-01-01T20:24:52.960Z,5.35
2023-01-01T20:27:26.905Z,5.10
2023-01-01T20:29:57.003Z,4.80
2023-01-01T20:34:53.193Z,5.85
2023-01-01T20:37:39.098Z,5.22
2023-01-01T20:40:07.130Z,6.35
2023-01-01T20:42:36.541Z,5.75
2023-01-01T20:45:04.958Z,5.60
2023-01-01T20:47:32.114Z,5.50
2023-01-01T20:49:59.380Z,5.60
2023-01-01T20:52:26.483Z,5.72
2023-01-01T20:54:53.723Z,4.82
2023-01-01T20:57:20.822Z,5.97
2023-01-01T20:59:47.959Z,5.40
2023-01-01T21:02:15.326Z,5.28
2023-01-01T21:04:42.483Z,5.18
2023-01-01T21:07:10.725Z,5.70
2023-01-01T21:09:38.596Z,5.65
2023-01-01T21:12:06.423Z,5.10
2023-01-01T21:14:33.889Z,5.35
2023-01-01T21:17:01.173Z,5.55
2023-01-01T21:19:28.840Z,5.28
2023-01-01T21:21:56.546Z,5.85
2023-01-01T21:24:26.478Z,5.57
2023-01-01T21:27:01.151Z,5.10
2023-01-01T21:29:28.479Z,5.50
2023-01-01T21:32:08.505Z,5.30
2023-01-01T21:34:42.289Z,5.70
2023-01-01T21:37:16.011Z,5.35
2023-01-01T21:39:43.218Z,5.60
2023-01-01T21:42:19.801Z,5.93
2023-01-01T21:44:48.314Z,5.80
2023-01-01T21:47:34.780Z,4.90
2023-01-01T21:50:01.930Z,5.50
2023-01-01T21:52:29.068Z,5.70
2023-01-01T21:54:57.771Z,5.40
2023-01-01T21:57:25.164Z,5.38
2023-01-01T21:59:54.224Z,5.68
2023-01-01T22:02:32.195Z,4.88
2023-01-01T22:05:00.899Z,5.82
2023-01-01T22:07:57.517Z,5.68
2023-01-01T22:10:22.405Z,5.68
2023-01-01T22:12:52.461Z,5.60
2023-01-01T22:15:25.792Z,5.30
2023-01-01T22:18:11.550Z,6.00
2023-01-01T22:20:39.516Z,5.47
2023-01-01T22:23:25.598Z,5.38
2023-01-01T22:25:53.405Z,5.82
2023-01-01T22:28:23.048Z,5.53
2023-01-01T22:30:53.921Z,6.15
2023-01-01T22:33:32.553Z,5.68
2023-01-01T22:35:59.764Z,5.75
2023-01-01T22:38:30.358Z,5.82
2023-01-01T22:40:57.478Z,5.65
2023-01-01T22:43:27.999Z,5.50
2023-01-01T22:45:55.224Z,6.07
2023-01-01T22:48:24.025Z,5.13
2023-01-01T22:50:54.175Z,5.40
2023-01-01T22:53:21.331Z,5.60
2023-01-01T22:55:48.408Z,6.40
2023-01-01T22:58:15.806Z,6.32
2023-01-01T23:00:42.960Z,6.30
2023-01-01T23:03:10.153Z,5.97
2023-01-01T23:05:37.430Z,5.43
2023-01-01T23:08:04.546Z,5.45
2023-01-01T23:10:31.982Z,5.95
2023-01-01T23:13:19.211Z,5.55
2023-01-01T23:16:06.582Z,5.47
2023-01-01T23:18:34.968Z,6.00
2023-01-01T23:21:02.621Z,6.47
2023-01-01T23:23:30.675Z,6.68
2023-01-01T23:25:58.561Z,5.78
2023-01-01T23:28:26.959Z,6.55
2023-01-01T23:30:54.200Z,5.95
2023-01-01T23:33:22.040Z,6.47
2023-01-01T23:35:49.606Z,6.25
2023-01-01T23:38:16.926Z,7.43
2023-01-01T23:40:44.055Z,6.60
2023-01-01T23:43:11.188Z,7.50
2023-01-01T23:45:38.843Z,7.28
2023-01-01T23:48:06.213Z,6.85
2023-01-01T23:50:33.458Z,6.53
2023-01-01T23:53:00.820Z,6.68
2023-01-01T23:55:27.945Z,7.20
2023-01-01T23:57:55.038Z,6.25
